Time;durP1;ratioP1;P1;durP2;ratioP2;P2;SDS_P1;SDS_P2;PMS_P1;PMS_P2;Temp;Humidity;BMP_temperature;BMP_pressure;BME280_temperature;BME280_humidity;BME280_pressure;Samples;Min_cycle;Max_cycle;Signal;HPM_P1;HPM_P2
2023/01/18 02:05:05;;;;;;;0.60;0.60;;;15.50;57.90;;;;;;5052874;28;20240;-63
2023/01/18 02:07:32;;;;;;;0.40;0.40;;;15.40;58.00;;;;;;5063389;28;20033;-64
2023/01/18 02:09:58;;;;;;;0.50;0.50;;;15.40;58.00;;;;;;5063845;28;20025;-64
2023/01/18 02:12:25;;;;;;;0.80;0.60;;;15.40;58.00;;;;;;5063630;28;20078;-65
2023/01/18 02:14:53;;;;;;;0.75;0.52;;;15.40;58.20;;;;;;5063682;28;20021;-65
2023/01/18 02:17:43;;;;;;;0.30;0.30;;;15.30;58.10;;;;;;5063483;28;20013;-64
2023/01/18 02:20:23;;;;;;;0.55;0.32;;;15.30;58.20;;;;;;5063647;28;20012;-65
2023/01/18 02:23:24;;;;;;;0.35;0.30;;;15.30;58.20;;;;;;5063565;28;20024;-65
2023/01/18 02:25:55;;;;;;;0.30;0.30;;;15.30;58.20;;;;;;5063524;28;20021;-65
2023/01/18 02:28:29;;;;;;;0.47;0.43;;;15.30;58.20;;;;;;5063509;28;20025;-65
2023/01/18 02:31:09;;;;;;;0.50;0.50;;;15.30;58.30;;;;;;5063394;28;20021;-66
2023/01/18 02:34:02;;;;;;;1.23;0.55;;;15.20;58.20;;;;;;5063377;28;20024;-64
2023/01/18 02:36:35;;;;;;;0.75;0.40;;;15.20;58.30;;;;;;5063193;28;20029;-65
2023/01/18 02:39:09;;;;;;;0.70;0.50;;;15.20;58.30;;;;;;5063237;28;20032;-65
2023/01/18 02:47:28;;;;;;;0.30;0.30;;;15.40;58.50;;;;;;5063020;28;20584;-64
2023/01/18 02:49:57;;;;;;;0.50;0.50;;;15.50;58.50;;;;;;5062904;28;20029;-64
2023/01/18 02:52:52;;;;;;;;;;;15.60;58.30;;;;;;5063368;28;20032;-64
2023/01/18 02:55:49;;;;;;;0.60;0.40;;;15.70;58.20;;;;;;5062407;28;20108;-65
2023/01/18 02:58:30;;;;;;;0.47;0.32;;;15.80;57.90;;;;;;5062601;28;20017;-65
2023/01/18 03:01:08;;;;;;;0.50;0.50;;;15.80;57.60;;;;;;5061423;28;20089;-65
2023/01/18 03:03:35;;;;;;;0.40;0.33;;;15.80;57.60;;;;;;5062849;28;20013;-66
2023/01/18 03:06:04;;;;;;;0.40;0.40;;;15.70;57.50;;;;;;5062592;28;20332;-65
2023/01/18 03:08:47;;;;;;;0.47;0.45;;;15.70;57.60;;;;;;5062547;28;20308;-65
2023/01/18 03:11:26;;;;;;;0.70;0.50;;;15.60;57.60;;;;;;5062605;28;20017;-66
2023/01/18 03:14:01;;;;;;;0.55;0.43;;;15.60;57.80;;;;;;5062554;28;20048;-64
2023/01/18 03:16:58;;;;;;;0.50;0.50;;;15.60;57.90;;;;;;5062445;28;20233;-64
2023/01/18 03:23:36;;;;;;;0.47;0.45;;;15.50;57.90;;;;;;5062514;28;20060;-64
2023/01/18 03:25:07;;;;;;;0.57;0.47;;;15.50;58.10;;;;;;5062114;28;20130;-66
2023/01/18 03:35:50;;;;;;;0.40;0.35;;;15.40;58.20;;;;;;5062047;28;20019;-64
2023/01/18 03:38:16;;;;;;;0.63;0.60;;;15.30;58.10;;;;;;5062114;28;20083;-64
2023/01/18 03:40:43;;;;;;;1.08;0.75;;;15.30;58.10;;;;;;5062064;28;20021;-65
2023/01/18 03:43:15;;;;;;;1.10;0.60;;;15.30;58.10;;;;;;5061991;28;20029;-65
2023/01/18 03:45:43;;;;;;;0.47;0.43;;;15.30;58.20;;;;;;5062068;28;20063;-65
2023/01/18 03:48:10;;;;;;;0.80;0.55;;;15.30;58.20;;;;;;5061632;28;20033;-64
2023/01/18 03:51:04;;;;;;;1.00;0.40;;;15.20;58.20;;;;;;5061936;28;20042;-65
2023/01/18 03:53:42;;;;;;;0.40;0.40;;;15.20;58.20;;;;;;5061847;28;20013;-64
2023/01/18 03:56:26;;;;;;;0.40;0.40;;;15.30;58.40;;;;;;5061751;28;20033;-64
2023/01/18 03:58:56;;;;;;;0.60;0.52;;;15.40;58.40;;;;;;5061797;28;20052;-64
2023/01/18 04:01:22;;;;;;;0.47;0.47;;;15.50;58.30;;;;;;5062002;28;20017;-64
2023/01/18 04:03:48;;;;;;;0.55;0.55;;;15.60;58.10;;;;;;5061919;28;20095;-64
2023/01/18 04:06:14;;;;;;;0.50;0.40;;;15.60;57.80;;;;;;5061712;28;20217;-65
2023/01/18 04:08:39;;;;;;;0.68;0.57;;;15.70;57.70;;;;;;5061665;28;20033;-64
2023/01/18 04:11:05;;;;;;;0.80;0.60;;;15.80;57.60;;;;;;5060799;28;20020;-64
2023/01/18 04:13:31;;;;;;;0.52;0.52;;;15.80;57.50;;;;;;5061445;28;20206;-64
2023/01/18 04:15:57;;;;;;;0.43;0.43;;;15.80;57.50;;;;;;5061352;28;20036;-64
2023/01/18 04:18:23;;;;;;;0.65;0.52;;;15.80;57.50;;;;;;5061417;28;20291;-64
2023/01/18 04:20:49;;;;;;;0.75;0.70;;;15.70;57.40;;;;;;5061303;28;20071;-64
2023/01/18 04:23:15;;;;;;;0.55;0.55;;;15.60;57.50;;;;;;5061216;28;20480;-64
2023/01/18 04:25:44;;;;;;;0.45;0.40;;;15.60;57.60;;;;;;5061219;28;20017;-65
2023/01/18 04:28:10;;;;;;;0.75;0.50;;;15.60;57.70;;;;;;5061165;28;20031;-64
2023/01/18 04:30:36;;;;;;;0.50;0.50;;;15.50;57.70;;;;;;5061089;28;20020;-64
2023/01/18 04:33:02;;;;;;;0.40;0.40;;;15.50;57.80;;;;;;5061010;28;20036;-64
2023/01/18 04:35:28;;;;;;;0.80;0.40;;;15.50;57.80;;;;;;5060952;28;20248;-64
2023/01/18 04:37:53;;;;;;;0.40;0.40;;;15.40;57.80;;;;;;5076200;28;20029;-64
2023/01/18 04:40:19;;;;;;;0.50;0.43;;;15.40;57.90;;;;;;5060877;28;20330;-65
2023/01/18 04:42:52;;;;;;;0.40;0.40;;;15.30;58.00;;;;;;5060852;28;20025;-65
2023/01/18 04:45:18;;;;;;;0.40;0.40;;;15.30;58.00;;;;;;5060834;28;20027;-64
2023/01/18 04:47:44;;;;;;;0.73;0.73;;;15.40;58.20;;;;;;5059413;28;20028;-64
2023/01/18 04:50:11;;;;;;;0.43;0.32;;;15.30;58.20;;;;;;5060767;28;20059;-64
2023/01/18 04:52:36;;;;;;;0.50;0.50;;;15.30;58.20;;;;;;5060645;28;20328;-64
2023/01/18 04:55:02;;;;;;;0.50;0.40;;;15.30;58.20;;;;;;5060627;28;20037;-64
2023/01/18 04:57:28;;;;;;;0.38;0.32;;;15.30;58.20;;;;;;5060505;28;20021;-64
2023/01/18 04:59:54;;;;;;;0.47;0.47;;;15.30;58.40;;;;;;5060614;28;20320;-64
2023/01/18 05:02:20;;;;;;;0.50;0.50;;;15.40;58.20;;;;;;5060526;28;20057;-64
2023/01/18 05:04:46;;;;;;;0.50;0.50;;;15.30;58.10;;;;;;5060286;28;20049;-64
2023/01/18 05:07:12;;;;;;;0.60;0.50;;;15.30;58.10;;;;;;5060462;28;20040;-64
2023/01/18 05:09:38;;;;;;;0.90;0.70;;;15.30;58.10;;;;;;5060441;28;20092;-64
2023/01/18 05:12:04;;;;;;;0.47;0.47;;;15.30;58.10;;;;;;5060342;28;20084;-64
2023/01/18 05:14:29;;;;;;;0.45;0.45;;;15.30;58.20;;;;;;5060390;28;20264;-64
2023/01/18 05:16:55;;;;;;;0.50;0.50;;;15.30;58.20;;;;;;5060239;28;20027;-65
2023/01/18 05:19:21;;;;;;;0.60;0.60;;;15.30;58.20;;;;;;5060379;28;20029;-64
2023/01/18 05:21:47;;;;;;;0.55;0.55;;;15.40;58.30;;;;;;5075798;28;20021;-65
2023/01/18 05:24:13;;;;;;;0.70;0.60;;;15.50;58.90;;;;;;5060336;28;20028;-64
2023/01/18 05:26:38;;;;;;;0.50;0.50;;;15.50;58.20;;;;;;5060293;28;20070;-64
2023/01/18 05:29:05;;;;;;;0.40;0.40;;;15.60;58.10;;;;;;5060370;28;20037;-64
2023/01/18 05:31:31;;;;;;;0.40;0.40;;;15.60;57.90;;;;;;5060359;28;20037;-64
2023/01/18 05:33:57;;;;;;;0.40;0.40;;;15.70;57.90;;;;;;5060297;28;20025;-64
2023/01/18 05:36:23;;;;;;;0.75;0.63;;;15.70;57.60;;;;;;5060243;28;20217;-64
2023/01/18 05:38:49;;;;;;;0.50;0.50;;;15.80;57.40;;;;;;5060194;28;20024;-64
2023/01/18 05:41:15;;;;;;;0.70;0.60;;;15.80;57.40;;;;;;5060267;28;20080;-64
2023/01/18 05:43:41;;;;;;;0.60;0.57;;;15.80;57.30;;;;;;5060239;28;20040;-65
2023/01/18 05:46:06;;;;;;;0.55;0.40;;;15.70;57.40;;;;;;5060217;28;20032;-64
2023/01/18 05:48:32;;;;;;;2.15;0.77;;;15.60;57.40;;;;;;5060333;28;20143;-64
2023/01/18 05:50:58;;;;;;;0.50;0.43;;;15.60;57.40;;;;;;5060280;28;20025;-65
2023/01/18 05:53:24;;;;;;;0.28;0.28;;;15.50;57.60;;;;;;5060355;28;20275;-64
2023/01/18 05:55:58;;;;;;;0.60;0.47;;;15.50;57.70;;;;;;5060078;28;20028;-64
2023/01/18 05:58:25;;;;;;;0.40;0.40;;;15.40;57.70;;;;;;5060117;28;20036;-64
2023/01/18 06:00:51;;;;;;;0.40;0.40;;;15.50;57.90;;;;;;5060054;28;20025;-64
2023/01/18 06:03:17;;;;;;;0.50;0.50;;;15.40;57.80;;;;;;5060086;28;20114;-64
2023/01/18 06:05:43;;;;;;;0.30;0.30;;;15.40;58.00;;;;;;5059933;28;20107;-64
2023/01/18 06:08:09;;;;;;;0.40;0.40;;;15.30;57.90;;;;;;5060047;28;20025;-64
2023/01/18 06:10:35;;;;;;;0.30;0.28;;;15.30;57.90;;;;;;5060084;28;20064;-64
2023/01/18 06:13:00;;;;;;;0.55;0.47;;;15.30;58.00;;;;;;5060177;28;20033;-64
2023/01/18 06:15:26;;;;;;;0.40;0.40;;;15.30;58.00;;;;;;5060143;28;20025;-65
2023/01/18 06:17:52;;;;;;;0.32;0.32;;;15.20;58.00;;;;;;5059981;28;20028;-65
2023/01/18 06:20:18;;;;;;;0.38;0.38;;;15.20;58.10;;;;;;5060018;28;20048;-64
2023/01/18 06:22:45;;;;;;;0.43;0.43;;;15.20;58.10;;;;;;5059935;28;20017;-64
2023/01/18 06:25:11;;;;;;;0.30;0.30;;;15.20;58.20;;;;;;5059935;28;20028;-64
2023/01/18 06:27:38;;;;;;;0.63;0.55;;;15.20;58.20;;;;;;5059905;28;20300;-64
2023/01/18 06:30:05;;;;;;;0.30;0.30;;;15.20;58.20;;;;;;5059980;28;20088;-64
2023/01/18 06:32:32;;;;;;;0.80;0.50;;;15.20;58.20;;;;;;5059909;28;20025;-64
2023/01/18 06:34:57;;;;;;;0.60;0.50;;;15.20;58.20;;;;;;5061525;28;20032;-65
2023/01/18 06:37:25;;;;;;;0.63;0.50;;;15.20;58.30;;;;;;5063545;28;20056;-65
2023/01/18 06:39:51;;;;;;;0.50;0.50;;;15.20;58.40;;;;;;5063422;28;20017;-65
2023/01/18 06:42:17;;;;;;;0.75;0.55;;;15.20;58.30;;;;;;5063365;28;20095;-64
2023/01/18 06:44:43;;;;;;;0.25;0.25;;;15.30;58.40;;;;;;5063440;28;20036;-65
2023/01/18 06:47:09;;;;;;;0.40;0.40;;;15.40;58.40;;;;;;5063259;28;20017;-65
2023/01/18 06:49:35;;;;;;;0.30;0.30;;;15.40;58.30;;;;;;5063309;28;20096;-65
2023/01/18 06:52:01;;;;;;;0.20;0.20;;;15.50;58.30;;;;;;5063234;28;20033;-66
2023/01/18 06:54:27;;;;;;;0.30;0.30;;;15.60;58.10;;;;;;5063181;28;20028;-65
2023/01/18 06:56:52;;;;;;;0.77;0.40;;;15.60;57.90;;;;;;5063107;28;20043;-66
2023/01/18 06:59:18;;;;;;;0.88;0.47;;;15.70;57.80;;;;;;5063141;28;20127;-65
2023/01/18 07:01:44;;;;;;;0.50;0.50;;;15.70;57.60;;;;;;5061770;28;20035;-65
2023/01/18 07:04:10;;;;;;;0.40;0.40;;;15.70;57.50;;;;;;5063031;28;20313;-65
2023/01/18 07:06:36;;;;;;;1.08;0.60;;;15.70;57.60;;;;;;5063188;28;20048;-65
2023/01/18 07:09:06;;;;;;;1.20;0.82;;;15.60;57.60;;;;;;5062905;28;20328;-64
2023/01/18 07:11:32;;;;;;;0.60;0.60;;;15.50;57.60;;;;;;5062840;28;20029;-64
2023/01/18 07:13:58;;;;;;;1.35;0.57;;;15.50;57.70;;;;;;5062835;28;20078;-64
2023/01/18 07:16:24;;;;;;;0.90;0.60;;;15.50;57.90;;;;;;5062776;28;20025;-65
2023/01/18 07:18:49;;;;;;;0.93;0.80;;;15.40;57.90;;;;;;5062726;28;20047;-66
2023/01/18 07:21:18;;;;;;;0.68;0.43;;;15.40;57.90;;;;;;5062671;28;20017;-64
2023/01/18 07:23:44;;;;;;;0.40;0.40;;;15.30;58.00;;;;;;5062638;28;20017;-64
2023/01/18 07:26:11;;;;;;;0.70;0.55;;;15.30;58.00;;;;;;5062513;28;20029;-65
2023/01/18 07:28:37;;;;;;;0.68;0.60;;;15.30;58.10;;;;;;5062464;28;20032;-66
2023/01/18 07:31:05;;;;;;;0.68;0.57;;;15.30;58.00;;;;;;5062504;28;20335;-66
2023/01/18 07:33:31;;;;;;;0.50;0.50;;;15.20;58.10;;;;;;5062421;28;20062;-65
2023/01/18 07:35:57;;;;;;;0.32;0.30;;;15.20;58.00;;;;;;5062330;28;20024;-65
2023/01/18 07:38:24;;;;;;;0.45;0.45;;;15.20;58.10;;;;;;5062305;28;20021;-65
2023/01/18 07:40:50;;;;;;;0.55;0.45;;;15.20;58.10;;;;;;5062304;28;20021;-65
2023/01/18 07:43:17;;;;;;;0.75;0.50;;;15.10;58.20;;;;;;5062236;28;20021;-66
2023/01/18 07:45:50;;;;;;;0.55;0.40;;;15.10;58.20;;;;;;5061310;28;20075;-65
2023/01/18 07:48:16;;;;;;;0.40;0.40;;;15.10;58.20;;;;;;5062316;28;20059;-64
2023/01/18 07:50:50;;;;;;;0.32;0.32;;;15.10;58.30;;;;;;5062219;28;20033;-64
2023/01/18 07:53:16;;;;;;;0.30;0.30;;;15.10;58.40;;;;;;5062121;28;20017;-64
2023/01/18 07:55:42;;;;;;;0.40;0.40;;;15.20;58.40;;;;;;5062050;28;20048;-64
2023/01/18 07:58:08;;;;;;;0.50;0.50;;;15.30;58.40;;;;;;5077260;28;20040;-64
2023/01/18 08:00:33;;;;;;;0.50;0.45;;;15.40;58.40;;;;;;5061860;28;20031;-65
2023/01/18 08:02:59;;;;;;;1.05;0.52;;;15.50;58.20;;;;;;5061776;28;20021;-64
2023/01/18 08:05:26;;;;;;;0.43;0.43;;;15.60;58.00;;;;;;5061557;28;20052;-66
2023/01/18 08:07:53;;;;;;;0.70;0.45;;;15.60;57.80;;;;;;5061688;28;20079;-64
2023/01/18 08:10:20;;;;;;;0.82;0.60;;;15.70;57.70;;;;;;5061487;28;20247;-64
2023/01/18 08:12:46;;;;;;;0.45;0.40;;;15.70;57.70;;;;;;5061506;28;20029;-65
2023/01/18 08:15:12;;;;;;;0.30;0.28;;;15.70;57.60;;;;;;5061494;28;20021;-65
2023/01/18 08:17:38;;;;;;;0.75;0.40;;;15.70;57.40;;;;;;5061359;28;20435;-65
2023/01/18 08:20:04;;;;;;;0.80;0.50;;;15.70;57.50;;;;;;5061462;28;20051;-65
2023/01/18 08:22:31;;;;;;;0.45;0.45;;;15.60;57.60;;;;;;5061452;28;20407;-64
2023/01/18 08:24:57;;;;;;;0.52;0.40;;;15.60;57.80;;;;;;5061381;28;20063;-64
2023/01/18 08:27:23;;;;;;;0.50;0.43;;;15.50;57.80;;;;;;5061320;28;20028;-65
2023/01/18 08:29:49;;;;;;;0.30;0.30;;;15.50;57.80;;;;;;5061247;28;20083;-65
2023/01/18 08:32:15;;;;;;;0.45;0.40;;;15.50;57.80;;;;;;5061223;28;20036;-65
2023/01/18 08:34:41;;;;;;;0.60;0.40;;;15.40;57.90;;;;;;5061154;28;20206;-65
2023/01/18 08:37:06;;;;;;;0.60;0.52;;;15.40;57.90;;;;;;5061056;28;20036;-64
2023/01/18 08:39:32;;;;;;;0.40;0.40;;;15.40;57.80;;;;;;5061087;28;20263;-64
2023/01/18 08:41:58;;;;;;;0.30;0.30;;;15.30;57.90;;;;;;5061009;28;20035;-65
2023/01/18 08:44:24;;;;;;;0.50;0.50;;;15.30;58.10;;;;;;5060967;28;20025;-65
2023/01/18 08:46:50;;;;;;;0.90;0.80;;;15.30;57.90;;;;;;5060843;28;20026;-65
2023/01/18 08:49:16;;;;;;;0.63;0.40;;;15.20;58.00;;;;;;5060872;28;20029;-65
2023/01/18 08:51:42;;;;;;;0.52;0.40;;;15.20;58.10;;;;;;5060785;28;20190;-64
2023/01/18 08:54:08;;;;;;;0.32;0.32;;;15.20;58.00;;;;;;5060770;28;20025;-65
2023/01/18 08:56:34;;;;;;;0.80;0.50;;;15.20;58.10;;;;;;5060493;28;20028;-64
2023/01/18 08:59:01;;;;;;;0.60;0.60;;;15.20;58.00;;;;;;5060645;28;20355;-64
2023/01/18 09:01:27;;;;;;;0.40;0.40;;;15.20;58.10;;;;;;5060682;28;20092;-65
2023/01/18 09:03:55;;;;;;;0.70;0.40;;;15.20;58.10;;;;;;5060688;28;20324;-64
2023/01/18 09:06:21;;;;;;;0.30;0.30;;;15.20;58.20;;;;;;5060201;28;20170;-64
2023/01/18 09:08:47;;;;;;;0.70;0.70;;;15.20;58.30;;;;;;5060631;28;20052;-64
2023/01/18 09:11:14;;;;;;;1.30;0.52;;;15.30;58.30;;;;;;5060621;28;20020;-64
2023/01/18 09:13:40;;;;;;;1.10;0.52;;;15.40;57.90;;;;;;5060573;28;20025;-65
2023/01/18 09:16:08;;;;;;;0.50;0.40;;;15.40;58.00;;;;;;5060466;28;20247;-66
2023/01/18 09:18:35;;;;;;;0.73;0.60;;;15.50;57.70;;;;;;5060510;28;20031;-64
2023/01/18 09:21:09;;;;;;;0.68;0.50;;;15.60;57.60;;;;;;5060442;28;20025;-65
2023/01/18 09:23:35;;;;;;;0.40;0.40;;;15.60;57.40;;;;;;5060503;28;20024;-65
2023/01/18 09:26:04;;;;;;;0.63;0.40;;;15.70;57.20;;;;;;5060577;28;20013;-65
2023/01/18 09:28:30;;;;;;;1.00;0.55;;;15.70;57.10;;;;;;5060456;28;20025;-65
2023/01/18 09:31:04;;;;;;;0.57;0.50;;;15.80;57.20;;;;;;5060304;28;20094;-65
2023/01/18 09:33:30;;;;;;;0.30;0.30;;;15.80;56.90;;;;;;5060485;28;20029;-64
2023/01/18 09:36:00;;;;;;;0.25;0.25;;;15.80;56.90;;;;;;5060297;28;20017;-64
2023/01/18 09:38:26;;;;;;;0.90;0.60;;;15.80;56.90;;;;;;5059005;28;20332;-64
2023/01/18 09:40:53;;;;;;;0.50;0.50;;;15.70;57.50;;;;;;5060211;28;20079;-64
2023/01/18 09:43:32;;;;;;;0.85;0.65;;;15.70;57.10;;;;;;5060102;28;20028;-65
2023/01/18 09:45:58;;;;;;;0.43;0.43;;;15.60;57.20;;;;;;5060249;28;20040;-64
2023/01/18 09:48:42;;;;;;;0.50;0.50;;;15.50;57.30;;;;;;5060128;28;20084;-65
2023/01/18 09:51:22;;;;;;;0.60;0.60;;;15.50;57.40;;;;;;5060246;28;20337;-64
2023/01/18 09:54:22;;;;;;;0.20;0.20;;;15.40;57.40;;;;;;5060142;28;20051;-65
2023/01/18 09:57:16;;;;;;;0.22;0.22;;;15.40;57.60;;;;;;5060128;28;20037;-65
2023/01/18 09:59:44;;;;;;;0.30;0.30;;;15.30;57.60;;;;;;5060052;28;20092;-64
2023/01/18 10:02:23;;;;;;;0.75;0.40;;;15.30;57.90;;;;;;5060061;28;20029;-64
2023/01/18 10:05:03;;;;;;;0.30;0.30;;;15.20;58.00;;;;;;5059799;28;20037;-65
2023/01/18 10:07:32;;;;;;;0.30;0.30;;;15.30;58.10;;;;;;5059990;28;20025;-65
2023/01/18 10:10:00;;;;;;;0.38;0.38;;;15.20;58.20;;;;;;5063047;28;20029;-65
2023/01/18 10:12:55;;;;;;;0.35;0.35;;;15.30;58.20;;;;;;5063767;28;20025;-65
2023/01/18 10:15:26;;;;;;;0.47;0.38;;;15.30;58.20;;;;;;5063765;28;20274;-64
2023/01/18 10:17:59;;;;;;;0.40;0.30;;;15.30;58.10;;;;;;5063545;28;20396;-64
2023/01/18 10:21:04;;;;;;;0.50;0.40;;;15.40;58.00;;;;;;5062616;28;20217;-64
2023/01/18 10:23:39;;;;;;;0.40;0.35;;;15.40;57.80;;;;;;5061438;28;20021;-65
2023/01/18 10:26:28;;;;;;;0.68;0.50;;;15.40;57.70;;;;;;5064096;28;20023;-64
2023/01/18 10:29:19;;;;;;;0.55;0.40;;;15.40;57.70;;;;;;5062597;28;20217;-64
2023/01/18 10:32:01;;;;;;;0.75;0.52;;;15.40;57.70;;;;;;5063543;28;20017;-65
2023/01/18 10:34:33;;;;;;;0.35;0.35;;;15.40;57.60;;;;;;5063661;28;20017;-65
2023/01/18 10:37:13;;;;;;;0.40;0.38;;;15.40;57.60;;;;;;5063482;28;20158;-65
2023/01/18 10:39:50;;;;;;;0.50;0.50;;;15.50;57.50;;;;;;5063463;28;20031;-66
2023/01/18 10:42:45;;;;;;;0.40;0.40;;;15.50;57.50;;;;;;5063402;28;20445;-65
2023/01/18 10:45:20;;;;;;;0.45;0.45;;;15.50;57.40;;;;;;5056555;28;20032;-66
2023/01/18 10:47:50;;;;;;;0.30;0.30;;;15.50;57.50;;;;;;5063273;28;20436;-65
2023/01/18 10:50:38;;;;;;;0.80;0.50;;;15.60;57.20;;;;;;5063394;28;20393;-65
2023/01/18 10:53:23;;;;;;;0.55;0.55;;;15.80;57.20;;;;;;5063205;28;20224;-65
2023/01/18 10:56:06;;;;;;;0.30;0.30;;;15.90;56.80;;;;;;5063104;28;20060;-64
2023/01/18 10:58:32;;;;;;;0.70;0.55;;;16.10;56.60;;;;;;5063244;28;20024;-64
2023/01/18 11:00:59;;;;;;;0.20;0.20;;;16.20;56.30;;;;;;5061923;28;20024;-64
2023/01/18 11:03:26;;;;;;;0.20;0.20;;;16.20;56.30;;;;;;5063031;28;20028;-64
2023/01/18 11:06:02;;;;;;;0.30;0.30;;;16.20;56.20;;;;;;5062782;28;20116;-64
2023/01/18 11:08:34;;;;;;;0.20;0.20;;;16.20;56.40;;;;;;5062790;28;20013;-64
2023/01/18 11:11:05;;;;;;;0.50;0.50;;;16.20;56.30;;;;;;5062723;28;20382;-63
2023/01/18 11:13:46;;;;;;;0.43;0.43;;;16.20;56.60;;;;;;5062809;28;20031;-64
2023/01/18 11:16:16;;;;;;;0.30;0.30;;;16.10;56.60;;;;;;5062700;28;20021;-65
2023/01/18 11:19:00;;;;;;;0.50;0.50;;;16.10;56.70;;;;;;5062671;28;20285;-64
2023/01/18 11:21:39;;;;;;;0.35;0.35;;;16.20;56.80;;;;;;5062717;28;20052;-64
2023/01/18 11:24:16;;;;;;;0.52;0.30;;;16.10;56.60;;;;;;5062705;28;20032;-65
2023/01/18 11:26:57;;;;;;;0.30;0.30;;;16.20;56.60;;;;;;5062655;28;20024;-65
2023/01/18 11:29:31;;;;;;;0.50;0.43;;;16.10;56.30;;;;;;5062624;28;20025;-64
2023/01/18 11:32:05;;;;;;;0.57;0.40;;;16.10;56.50;;;;;;5062736;28;20047;-65
2023/01/18 11:34:36;;;;;;;0.30;0.30;;;16.10;56.40;;;;;;5062647;28;20012;-66
2023/01/18 11:37:02;;;;;;;0.43;0.30;;;16.10;56.40;;;;;;5062386;28;20040;-65
2023/01/18 11:39:34;;;;;;;0.77;0.45;;;16.10;56.40;;;;;;5062324;28;20084;-64
2023/01/18 11:42:21;;;;;;;0.40;0.40;;;16.10;56.30;;;;;;5062292;28;20127;-65
2023/01/18 11:45:17;;;;;;;0.50;0.47;;;16.10;56.30;;;;;;5062268;28;20201;-64
2023/01/18 11:48:09;;;;;;;0.43;0.43;;;16.00;56.30;;;;;;5062064;28;20320;-64
2023/01/18 11:50:51;;;;;;;0.30;0.30;;;16.00;56.40;;;;;;5062117;28;20024;-64
2023/01/18 11:53:37;;;;;;;0.20;0.20;;;16.00;56.30;;;;;;5062029;28;20028;-64
2023/01/18 11:56:15;;;;;;;0.43;0.20;;;16.00;56.40;;;;;;5061934;28;20138;-64
2023/01/18 11:58:41;;;;;;;0.30;0.30;;;16.00;56.40;;;;;;5061968;28;20240;-64
2023/01/18 12:01:21;;;;;;;0.50;0.50;;;16.00;56.40;;;;;;5061913;28;20028;-64
2023/01/18 12:03:59;;;;;;;0.60;0.40;;;16.00;56.30;;;;;;5061891;28;20017;-66
2023/01/18 12:06:55;;;;;;;0.20;0.20;;;16.00;56.30;;;;;;5061264;28;20064;-64
2023/01/18 12:09:50;;;;;;;0.30;0.30;;;16.00;56.20;;;;;;5061789;28;20029;-65
2023/01/18 12:13:09;;;;;;;0.50;0.47;;;16.00;56.30;;;;;;5061697;28;20037;-64
2023/01/18 12:15:57;;;;;;;0.60;0.40;;;15.90;56.30;;;;;;4999945;28;20208;-66
2023/01/18 12:18:45;;;;;;;0.30;0.30;;;15.90;56.30;;;;;;5076864;28;20091;-64
2023/01/18 12:21:23;;;;;;;0.30;0.30;;;15.90;56.30;;;;;;5061423;28;20013;-63
2023/01/18 12:24:10;;;;;;;0.40;0.40;;;15.90;56.30;;;;;;5061466;28;20021;-65
2023/01/18 12:26:58;;;;;;;0.50;0.28;;;15.90;56.40;;;;;;5061374;28;20111;-64
2023/01/18 12:30:00;;;;;;;0.47;0.47;;;15.90;56.30;;;;;;5061702;28;20511;-65
2023/01/18 12:33:04;;;;;;;0.60;0.60;;;15.90;56.30;;;;;;5061165;28;20108;-64
2023/01/18 12:35:43;;;;;;;0.50;0.30;;;15.90;56.30;;;;;;5061499;28;20051;-65
2023/01/18 12:38:27;;;;;;;0.43;0.30;;;15.90;56.30;;;;;;5061129;28;20025;-66
2023/01/18 12:41:17;;;;;;;0.22;0.20;;;15.90;56.40;;;;;;5061140;28;20256;-64
2023/01/18 12:44:15;;;;;;;0.30;0.30;;;15.90;56.30;;;;;;5061082;28;20028;-64
2023/01/18 12:47:14;;;;;;;0.40;0.40;;;16.00;56.80;;;;;;5061002;28;20038;-64
2023/01/18 12:49:45;;;;;;;0.20;0.20;;;16.10;56.10;;;;;;5035395;28;20041;-64
2023/01/18 12:52:15;;;;;;;0.77;0.40;;;16.10;55.90;;;;;;5061005;28;20031;-64
2023/01/18 12:54:49;;;;;;;0.40;0.40;;;16.20;55.80;;;;;;5059579;28;20021;-64
2023/01/18 12:57:16;;;;;;;0.40;0.40;;;16.30;55.70;;;;;;5061010;28;20088;-65
2023/01/18 12:59:49;;;;;;;0.40;0.38;;;16.30;55.60;;;;;;5061082;28;20012;-65
2023/01/18 13:02:32;;;;;;;0.20;0.20;;;16.40;55.60;;;;;;5060801;28;20223;-64
2023/01/18 13:05:10;;;;;;;0.30;0.30;;;16.40;55.50;;;;;;5060627;28;20159;-65
2023/01/18 13:08:00;;;;;;;0.35;0.35;;;16.40;55.40;;;;;;5060748;28;20044;-64
2023/01/18 13:10:27;;;;;;;0.40;0.40;;;16.40;55.40;;;;;;5060698;28;20074;-64
2023/01/18 13:12:56;;;;;;;0.20;0.20;;;16.40;55.50;;;;;;5060642;28;20089;-64
2023/01/18 13:15:43;;;;;;;0.30;0.30;;;16.30;55.50;;;;;;5060557;28;20088;-64
2023/01/18 13:18:14;;;;;;;0.40;0.38;;;16.30;55.60;;;;;;5060532;28;20032;-65
2023/01/18 13:21:05;;;;;;;0.25;0.17;;;16.30;55.70;;;;;;5060541;28;20063;-64
2023/01/18 13:24:17;;;;;;;0.52;0.30;;;16.30;55.80;;;;;;5060539;28;20092;-65
2023/01/18 13:26:43;;;;;;;0.98;0.45;;;16.30;55.80;;;;;;5060375;28;20039;-65
2023/01/18 13:29:09;;;;;;;0.20;0.20;;;16.20;55.80;;;;;;5060281;28;20201;-65
2023/01/18 13:31:37;;;;;;;0.40;0.40;;;16.10;55.80;;;;;;5060373;28;20032;-65
2023/01/18 13:34:14;;;;;;;0.40;0.40;;;16.10;56.10;;;;;;5060340;28;20063;-65
2023/01/18 13:36:45;;;;;;;0.28;0.28;;;16.00;56.30;;;;;;5060139;28;20029;-64
2023/01/18 13:39:17;;;;;;;0.55;0.40;;;16.00;56.40;;;;;;5060193;28;20025;-65
2023/01/18 13:42:09;;;;;;;1.10;0.47;;;15.90;56.60;;;;;;5060241;28;20021;-64
2023/01/18 13:44:41;;;;;;;0.40;0.40;;;15.90;56.70;;;;;;5063005;28;20083;-64
2023/01/18 13:47:38;;;;;;;0.40;0.40;;;15.80;56.90;;;;;;5064345;28;20071;-64
2023/01/18 13:50:27;;;;;;;0.68;0.45;;;15.80;57.00;;;;;;5064356;28;20388;-64
2023/01/18 13:53:11;;;;;;;0.85;0.50;;;15.70;57.10;;;;;;5064215;28;20037;-65
2023/01/18 13:55:52;;;;;;;0.47;0.32;;;15.70;57.10;;;;;;5064243;28;20029;-64
2023/01/18 13:58:27;;;;;;;0.40;0.20;;;15.70;57.20;;;;;;5064089;28;20079;-64
2023/01/18 14:00:57;;;;;;;0.40;0.40;;;15.70;57.30;;;;;;5064163;28;20037;-65
2023/01/18 14:03:28;;;;;;;0.73;0.47;;;15.60;57.20;;;;;;5064054;28;20025;-64
2023/01/18 14:05:56;;;;;;;0.20;0.20;;;15.60;57.20;;;;;;5063581;28;20053;-64
2023/01/18 14:08:31;;;;;;;0.52;0.30;;;15.60;57.30;;;;;;5062736;28;20056;-64
2023/01/18 14:11:04;;;;;;;0.40;0.30;;;15.70;57.30;;;;;;5064171;28;20128;-64
2023/01/18 14:13:48;;;;;;;0.35;0.35;;;15.70;57.20;;;;;;5064060;28;20029;-65
2023/01/18 14:16:16;;;;;;;0.28;0.28;;;15.90;57.10;;;;;;5062515;28;20029;-64
2023/01/18 14:18:55;;;;;;;0.63;0.55;;;16.00;56.90;;;;;;5063858;28;20028;-66
2023/01/18 14:21:24;;;;;;;0.32;0.32;;;16.10;56.70;;;;;;5063827;28;20024;-64
2023/01/18 14:24:27;;;;;;;0.60;0.30;;;16.20;57.00;;;;;;5063763;28;20074;-64
2023/01/18 14:26:55;;;;;;;0.20;0.20;;;16.20;56.20;;;;;;5063693;28;20025;-64
2023/01/18 14:29:34;;;;;;;0.20;0.20;;;16.20;56.10;;;;;;5063682;28;20032;-64
2023/01/18 14:32:04;;;;;;;0.30;0.30;;;16.20;56.20;;;;;;5063600;28;20048;-64
2023/01/18 14:34:41;;;;;;;0.30;0.30;;;16.10;56.20;;;;;;5063508;28;20335;-65
2023/01/18 14:37:30;;;;;;;0.20;0.20;;;16.00;56.40;;;;;;5063443;28;20033;-64
2023/01/18 14:40:02;;;;;;;0.35;0.30;;;15.90;56.60;;;;;;5063462;28;20052;-65
2023/01/18 14:42:33;;;;;;;0.20;0.20;;;15.90;56.80;;;;;;5062098;28;20071;-64
2023/01/18 14:45:03;;;;;;;0.45;0.45;;;15.80;57.00;;;;;;5063547;28;20370;-64
2023/01/18 14:47:32;;;;;;;0.30;0.30;;;15.70;57.00;;;;;;5063454;28;20024;-64
2023/01/18 14:50:00;;;;;;;;;;;15.70;57.20;;;;;;5063681;28;20048;-64
2023/01/18 14:52:30;;;;;;;0.38;0.38;;;15.70;57.90;;;;;;5063212;28;20196;-64
2023/01/18 14:54:56;;;;;;;0.68;0.68;;;15.60;57.40;;;;;;5062718;28;20036;-65
2023/01/18 14:57:23;;;;;;;0.20;0.20;;;15.60;57.40;;;;;;5063109;28;20029;-64
2023/01/18 15:00:15;;;;;;;0.43;0.38;;;15.60;57.50;;;;;;5063132;28;20044;-65
2023/01/18 15:02:42;;;;;;;0.28;0.28;;;15.50;57.50;;;;;;5062938;28;20019;-66
2023/01/18 15:05:15;;;;;;;0.20;0.20;;;15.50;57.60;;;;;;5062765;28;20111;-64
2023/01/18 15:07:44;;;;;;;0.30;0.30;;;15.50;57.70;;;;;;5062980;28;20024;-64
2023/01/18 15:10:15;;;;;;;0.52;0.20;;;15.50;57.70;;;;;;5062926;28;20033;-64
2023/01/18 15:12:45;;;;;;;0.32;0.32;;;15.50;57.70;;;;;;5062921;28;20032;-64
2023/01/18 15:15:29;;;;;;;0.30;0.30;;;15.50;57.60;;;;;;5063010;28;20339;-64
2023/01/18 15:18:02;;;;;;;0.75;0.50;;;15.50;57.60;;;;;;5062851;28;20043;-64
2023/01/18 15:20:28;;;;;;;0.47;0.47;;;15.50;57.60;;;;;;5062823;28;20071;-64
2023/01/18 15:22:55;;;;;;;0.25;0.25;;;15.50;57.60;;;;;;5062635;28;20024;-64
2023/01/18 15:25:30;;;;;;;0.32;0.28;;;15.60;57.60;;;;;;5062515;28;20209;-64
2023/01/18 15:28:00;;;;;;;0.30;0.30;;;15.50;57.60;;;;;;5062511;28;20021;-65
2023/01/18 15:30:26;;;;;;;0.73;0.40;;;15.50;57.60;;;;;;5062482;28;20096;-64
2023/01/18 15:32:55;;;;;;;0.40;0.40;;;15.50;57.70;;;;;;5062423;28;20374;-64
2023/01/18 15:35:24;;;;;;;0.35;0.30;;;15.50;57.60;;;;;;5062342;28;20025;-65
2023/01/18 15:37:50;;;;;;;0.32;0.20;;;15.60;57.70;;;;;;5062076;28;20347;-64